Wetterdaten: Woche 06.04.15 - 12.04.15 (KW15)
Datum Zeit Temp. A. Feuchte A. Luftdruck Regen Wind Richtung Taupunkt Windchill Windben
06.04.2015 00:00 2,8 C 64 % 1021,5 hPa 0,0 l/m 1,2 km/h N -3,4 C 2,8 C 5,2 km/h
06.04.2015 01:00 2,5 C 65 % 1021,4 hPa 0,0 l/m 1,8 km/h N -3,4 C 2,5 C 8,0 km/h
06.04.2015 02:00 2,9 C 65 % 1021,2 hPa 0,0 l/m 6,8 km/h N -3,1 C 2,5 C 16,9 km/h
06.04.2015 03:00 2,8 C 66 % 1021,1 hPa 0,0 l/m 5,0 km/h N -2,8 C 2,8 C 14,1 km/h
06.04.2015 04:00 2,9 C 67 % 1020,9 hPa 0,0 l/m 5,5 km/h N -2,6 C 2,9 C 13,3 km/h
06.04.2015 05:00 3,0 C 68 % 1020,9 hPa 0,0 l/m 4,8 km/h N -2,3 C 3,0 C 12,9 km/h
06.04.2015 06:00 2,4 C 70 % 1021,1 hPa 0,0 l/m 1,2 km/h N -2,5 C 2,4 C 8,0 km/h
06.04.2015 07:00 2,8 C 70 % 1021,4 hPa 0,0 l/m 6,1 km/h N -2,2 C 2,4 C 14,5 km/h
06.04.2015 08:00 4,2 C 65 % 1021,6 hPa 0,0 l/m 9,1 km/h N -1,9 C 1,8 C 22,5 km/h
06.04.2015 09:00 5,6 C 58 % 1021,4 hPa 0,0 l/m 9,6 km/h N -2,2 C 3,0 C 21,7 km/h
06.04.2015 10:00 6,0 C 55 % 1021,6 hPa 0,0 l/m 12,3 km/h N -2,3 C 1,9 C 26,1 km/h
06.04.2015 11:00 6,5 C 48 % 1021,6 hPa 0,0 l/m 11,4 km/h N -3,9 C 2,8 C 24,1 km/h
06.04.2015 12:00 5,9 C 55 % 1021,8 hPa 0,0 l/m 10,2 km/h N -2,4 C 3,0 C 25,8 km/h
06.04.2015 13:00 6,4 C 52 % 1021,7 hPa 0,0 l/m 7,5 km/h N -2,7 C 5,5 C 25,0 km/h
06.04.2015 14:00 7,8 C 44 % 1021,3 hPa 0,0 l/m 11,9 km/h N -3,8 C 4,0 C 26,5 km/h
06.04.2015 15:00 8,0 C 42 % 1021,2 hPa 0,0 l/m 10,1 km/h N -4,2 C 5,4 C 24,1 km/h
06.04.2015 16:00 6,1 C 52 % 1021,6 hPa 0,0 l/m 9,9 km/h N -3,1 C 3,3 C 24,1 km/h
06.04.2015 17:00 5,8 C 58 % 1022,1 hPa 0,0 l/m 12,2 km/h N -2,0 C 1,8 C 27,0 km/h
06.04.2015 18:00 5,4 C 60 % 1022,8 hPa 0,0 l/m 7,9 km/h N -1,8 C 4,0 C 19,3 km/h
06.04.2015 19:00 4,1 C 69 % 1024,1 hPa 0,0 l/m 8,2 km/h N -1,1 C 2,5 C 20,9 km/h
06.04.2015 20:00 3,2 C 73 % 1025,1 hPa 0,0 l/m 6,9 km/h N -1,2 C 2,3 C 16,9 km/h
06.04.2015 21:00 3,0 C 72 % 1025,8 hPa 0,0 l/m 7,4 km/h N -1,5 C 2,1 C 18,5 km/h
06.04.2015 22:00 2,8 C 74 % 1026,5 hPa 0,0 l/m 9,2 km/h N -1,4 C 0,2 C 22,1 km/h
06.04.2015 23:00 2,5 C 75 % 1027,3 hPa 0,0 l/m 9,5 km/h N -1,4 C -0,2 C 21,7 km/h
07.04.2015 00:00 2,3 C 74 % 1027,9 hPa 0,0 l/m 10,6 km/h N -1,8 C -1,3 C 23,7 km/h
07.04.2015 01:00 2,5 C 74 % 1028,5 hPa 0,0 l/m 9,4 km/h N -1,7 C -0,2 C 23,3 km/h
07.04.2015 02:00 2,6 C 74 % 1028,6 hPa 0,0 l/m 9,4 km/h N -1,6 C -0,1 C 22,1 km/h
07.04.2015 03:00 2,7 C 73 % 1029,3 hPa 0,0 l/m 9,8 km/h N -1,6 C -0,4 C 22,5 km/h
07.04.2015 04:00 2,2 C 74 % 1029,9 hPa 0,0 l/m 9,3 km/h N -2,0 C -0,3 C 23,3 km/h
07.04.2015 05:00 1,8 C 74 % 1030,3 hPa 0,0 l/m 9,7 km/h N -2,4 C -1,2 C 22,5 km/h
07.04.2015 06:00 1,8 C 73 % 1031,0 hPa 0,0 l/m 10,5 km/h N -2,5 C -1,9 C 22,9 km/h
07.04.2015 07:00 2,2 C 72 % 1031,9 hPa 0,0 l/m 11,5 km/h N -2,4 C -2,1 C 26,1 km/h
07.04.2015 08:00 3,7 C 68 % 1032,3 hPa 0,0 l/m 11,9 km/h N -1,7 C -0,6 C 24,9 km/h
07.04.2015 09:00 5,0 C 64 % 1032,6 hPa 0,0 l/m 13,3 km/h N -1,2 C 0,0 C 27,8 km/h
07.04.2015 10:00 6,0 C 58 % 1032,6 hPa 0,0 l/m 14,6 km/h N -1,7 C 0,5 C 28,6 km/h
07.04.2015 11:00 6,1 C 57 % 1032,6 hPa 0,0 l/m 12,5 km/h N -1,8 C 1,8 C 26,6 km/h
07.04.2015 12:00 6,9 C 57 % 1032,1 hPa 0,0 l/m 14,7 km/h N -1,0 C 1,5 C 30,6 km/h
07.04.2015 13:00 7,7 C 56 % 1031,5 hPa 0,0 l/m 12,9 km/h N -0,6 C 3,4 C 27,8 km/h
07.04.2015 14:00 9,0 C 48 % 1030,8 hPa 0,0 l/m 18,0 km/h N -1,5 C 2,7 C 35,8 km/h
07.04.2015 15:00 9,3 C 48 % 1030,2 hPa 0,0 l/m 17,7 km/h N -1,3 C 3,2 C 32,6 km/h
07.04.2015 16:00 9,5 C 48 % 1029,9 hPa 0,0 l/m 14,6 km/h N -1,0 C 4,7 C 30,2 km/h
07.04.2015 17:00 9,9 C 46 % 1029,3 hPa 0,0 l/m 15,1 km/h N -1,4 C 5,0 C 33,8 km/h
07.04.2015 18:00 9,9 C 46 % 1028,7 hPa 0,0 l/m 12,2 km/h N -1,3 C 6,3 C 27,3 km/h
07.04.2015 19:00 9,2 C 47 % 1028,5 hPa 0,0 l/m 11,1 km/h N -1,6 C 6,2 C 25,3 km/h
07.04.2015 20:00 8,7 C 49 % 1028,7 hPa 0,0 l/m 14,3 km/h N -1,4 C 3,9 C 30,6 km/h
07.04.2015 21:00 8,3 C 51 % 1028,7 hPa 0,0 l/m 13,7 km/h N -1,2 C 3,6 C 27,8 km/h
07.04.2015 22:00 7,8 C 53 % 1028,4 hPa 0,0 l/m 14,0 km/h N -1,2 C 3,0 C 29,0 km/h
07.04.2015 23:00 7,8 C 53 % 1028,4 hPa 0,0 l/m 14,3 km/h N -1,3 C 2,8 C 29,4 km/h
08.04.2015 00:00 7,7 C 52 % 1028,2 hPa 0,0 l/m 15,0 km/h N -1,5 C 2,3 C 30,6 km/h
08.04.2015 01:00 7,8 C 52 % 1027,9 hPa 0,0 l/m 14,8 km/h N -1,5 C 2,6 C 31,4 km/h
08.04.2015 02:00 7,7 C 52 % 1027,7 hPa 0,0 l/m 12,0 km/h N -1,5 C 4,1 C 30,1 km/h
08.04.2015 03:00 7,7 C 54 % 1027,3 hPa 0,0 l/m 14,0 km/h N -0,9 C 2,9 C 30,2 km/h
08.04.2015 04:00 7,4 C 57 % 1026,5 hPa 0,0 l/m 14,5 km/h N -0,5 C 2,3 C 32,2 km/h
08.04.2015 05:00 7,2 C 59 % 1026,3 hPa 0,0 l/m 15,0 km/h N -0,3 C 1,8 C 33,4 km/h
08.04.2015 06:00 7,1 C 60 % 1026,3 hPa 0,0 l/m 15,9 km/h N -0,0 C 1,3 C 34,2 km/h
08.04.2015 07:00 6,5 C 66 % 1026,8 hPa 0,0 l/m 14,4 km/h N 0,6 C 1,2 C 31,0 km/h
08.04.2015 08:00 6,4 C 68 % 1026,8 hPa 0,0 l/m 14,4 km/h N 0,9 C 1,1 C 29,4 km/h
08.04.2015 09:00 6,9 C 67 % 1026,8 hPa 0,0 l/m 16,0 km/h N 1,2 C 0,9 C 33,4 km/h
08.04.2015 10:00 6,8 C 69 % 1027,2 hPa 0,0 l/m 14,5 km/h N 1,5 C 1,6 C 31,0 km/h
08.04.2015 11:00 7,3 C 66 % 1027,3 hPa 0,0 l/m 14,6 km/h N 1,3 C 2,0 C 31,0 km/h
08.04.2015 12:00 7,6 C 64 % 1027,6 hPa 0,0 l/m 13,8 km/h N 1,3 C 2,9 C 29,4 km/h
08.04.2015 13:00 8,0 C 64 % 1027,9 hPa 0,0 l/m 13,0 km/h N 1,5 C 3,7 C 26,5 km/h
08.04.2015 14:00 8,5 C 66 % 1028,3 hPa 0,0 l/m 6,4 km/h N 2,5 C 8,2 C 16,9 km/h
08.04.2015 15:00 9,4 C 68 % 1028,2 hPa 0,0 l/m 15,0 km/h N 3,8 C 4,3 C 32,2 km/h
08.04.2015 16:00 9,8 C 67 % 1028,1 hPa 0,0 l/m 13,8 km/h N 4,0 C 5,4 C 27,0 km/h
08.04.2015 17:00 10,1 C 66 % 1028,1 hPa 0,0 l/m 13,4 km/h N 3,9 C 5,9 C 32,2 km/h
08.04.2015 18:00 10,0 C 66 % 1028,5 hPa 0,0 l/m 9,4 km/h N 4,0 C 8,0 C 22,1 km/h
08.04.2015 19:00 9,5 C 68 % 1029,0 hPa 0,0 l/m 10,2 km/h N 3,9 C 7,0 C 25,3 km/h
08.04.2015 20:00 9,3 C 70 % 1029,7 hPa 0,0 l/m 9,4 km/h N 4,0 C 7,2 C 22,9 km/h
08.04.2015 21:00 9,1 C 70 % 1030,1 hPa 0,0 l/m 9,0 km/h N 3,9 C 7,2 C 21,7 km/h
08.04.2015 22:00 8,9 C 70 % 1030,4 hPa 0,0 l/m 10,8 km/h N 3,7 C 5,9 C 24,5 km/h
08.04.2015 23:00 8,6 C 71 % 1030,1 hPa 0,0 l/m 9,7 km/h N 3,6 C 6,2 C 22,9 km/h
09.04.2015 00:00 8,6 C 71 % 1030,2 hPa 0,0 l/m 10,9 km/h N 3,6 C 5,5 C 23,7 km/h
09.04.2015 01:00 8,4 C 71 % 1030,5 hPa 0,0 l/m 9,9 km/h N 3,3 C 5,9 C 23,3 km/h
09.04.2015 02:00 8,0 C 73 % 1030,8 hPa 0,0 l/m 6,7 km/h N 3,4 C 7,7 C 17,3 km/h
09.04.2015 03:00 7,9 C 73 % 1030,9 hPa 0,0 l/m 7,6 km/h N 3,3 C 6,7 C 18,1 km/h
09.04.2015 04:00 7,7 C 75 % 1030,8 hPa 0,0 l/m 6,9 km/h N 3,4 C 7,3 C 19,7 km/h
09.04.2015 05:00 7,4 C 75 % 1031,1 hPa 0,0 l/m 5,4 km/h N 3,3 C 7,4 C 13,7 km/h
09.04.2015 06:00 6,9 C 76 % 1031,1 hPa 0,0 l/m 2,8 km/h N 2,9 C 6,9 C 9,3 km/h
09.04.2015 07:00 7,1 C 76 % 1031,4 hPa 0,0 l/m 4,2 km/h N 3,2 C 7,1 C 10,9 km/h
09.04.2015 08:00 7,8 C 75 % 1031,6 hPa 0,0 l/m 5,1 km/h N 3,7 C 7,8 C 12,5 km/h
09.04.2015 09:00 8,6 C 72 % 1031,3 hPa 0,0 l/m 5,1 km/h N 3,8 C 8,6 C 13,3 km/h
09.04.2015 10:00 9,9 C 67 % 1031,2 hPa 0,0 l/m 3,8 km/h N 4,1 C 9,9 C 12,5 km/h
09.04.2015 11:00 10,7 C 62 % 1031,0 hPa 0,0 l/m 3,3 km/h N 3,7 C 10,7 C 9,6 km/h
09.04.2015 12:00 11,6 C 60 % 1030,6 hPa 0,0 l/m 2,5 km/h N 4,0 C 11,6 C 9,7 km/h
09.04.2015 13:00 13,1 C 57 % 1030,0 hPa 0,0 l/m 1,7 km/h N 4,7 C 13,1 C 9,3 km/h
09.04.2015 14:00 13,7 C 53 % 1029,3 hPa 0,0 l/m 1,9 km/h N 4,3 C 13,7 C 9,3 km/h
09.04.2015 15:00 14,1 C 51 % 1028,7 hPa 0,0 l/m 1,9 km/h N 4,1 C 14,1 C 8,9 km/h
09.04.2015 16:00 14,3 C 50 % 1027,9 hPa 0,0 l/m 2,3 km/h N 4,1 C 14,3 C 9,7 km/h
09.04.2015 17:00 14,4 C 51 % 1027,5 hPa 0,0 l/m 1,6 km/h N 4,3 C 14,4 C 9,3 km/h
09.04.2015 18:00 13,9 C 52 % 1027,3 hPa 0,0 l/m 0,8 km/h N 4,1 C 13,9 C 6,4 km/h
09.04.2015 19:00 12,3 C 54 % 1027,3 hPa 0,0 l/m 2,1 km/h N 3,3 C 12,3 C 10,1 km/h
09.04.2015 20:00 10,9 C 58 % 1027,4 hPa 0,0 l/m 0,6 km/h N 2,8 C 10,9 C 6,0 km/h
09.04.2015 21:00 9,1 C 62 % 1027,5 hPa 0,0 l/m 0,0 km/h N 2,1 C 9,1 C 1,2 km/h
09.04.2015 22:00 6,5 C 69 % 1027,3 hPa 0,0 l/m 0,0 km/h N 1,2 C 6,5 C 0,4 km/h
09.04.2015 23:00 5,7 C 77 % 1027,0 hPa 0,0 l/m 0,2 km/h N 1,9 C 5,7 C 2,8 km/h
10.04.2015 00:00 7,0 C 74 % 1026,6 hPa 0,0 l/m 0,5 km/h N 2,7 C 7,0 C 4,8 km/h
10.04.2015 01:00 6,8 C 72 % 1026,1 hPa 0,0 l/m 0,2 km/h N 2,1 C 6,8 C 2,4 km/h
10.04.2015 02:00 4,8 C 73 % 1025,6 hPa 0,0 l/m 0,0 km/h N 0,3 C 4,8 C 0,0 km/h
10.04.2015 03:00 2,8 C 79 % 1025,5 hPa 0,0 l/m 0,0 km/h N -0,4 C 2,8 C 0,0 km/h
10.04.2015 04:00 1,8 C 83 % 1025,5 hPa 0,0 l/m 0,0 km/h N -0,8 C 1,8 C 0,4 km/h
10.04.2015 05:00 1,5 C 85 % 1025,4 hPa 0,0 l/m 0,0 km/h N -0,8 C 1,5 C 0,0 km/h
10.04.2015 06:00 1,2 C 85 % 1025,6 hPa 0,0 l/m 0,0 km/h N -1,0 C 1,2 C 0,0 km/h
10.04.2015 07:00 2,0 C 84 % 1026,0 hPa 0,0 l/m 0,0 km/h N -0,4 C 2,0 C 0,0 km/h
10.04.2015 08:00 5,6 C 83 % 1025,9 hPa 0,0 l/m 0,3 km/h N 2,9 C 5,6 C 2,0 km/h
10.04.2015 09:00 9,9 C 76 % 1025,8 hPa 0,0 l/m 0,6 km/h N 5,7 C 9,9 C 4,8 km/h
10.04.2015 10:00 13,3 C 62 % 1025,6 hPa 0,0 l/m 1,0 km/h N 6,2 C 13,3 C 5,6 km/h
10.04.2015 11:00 14,8 C 60 % 1025,4 hPa 0,0 l/m 0,9 km/h N 7,1 C 14,8 C 6,4 km/h
10.04.2015 12:00 15,8 C 58 % 1024,8 hPa 0,0 l/m 1,9 km/h N 7,5 C 15,8 C 10,9 km/h
10.04.2015 13:00 17,9 C 54 % 1024,1 hPa 0,0 l/m 1,6 km/h N 8,3 C 17,9 C 8,9 km/h
10.04.2015 14:00 19,9 C 48 % 1023,4 hPa 0,0 l/m 1,4 km/h N 8,4 C 19,9 C 9,3 km/h
10.04.2015 15:00 20,3 C 45 % 1022,6 hPa 0,0 l/m 2,4 km/h N 8,1 C 20,3 C 14,5 km/h
10.04.2015 16:00 20,1 C 45 % 1022,0 hPa 0,0 l/m 3,0 km/h N 7,6 C 20,1 C 14,5 km/h
10.04.2015 17:00 19,6 C 43 % 1021,6 hPa 0,0 l/m 2,8 km/h N 6,7 C 19,6 C 11,7 km/h
10.04.2015 18:00 18,5 C 46 % 1021,3 hPa 0,0 l/m 2,3 km/h N 6,7 C 18,5 C 11,3 km/h
10.04.2015 19:00 16,8 C 49 % 1021,2 hPa 0,0 l/m 0,9 km/h N 5,9 C 16,8 C 7,2 km/h
10.04.2015 20:00 14,9 C 53 % 1021,2 hPa 0,0 l/m 0,3 km/h N 5,3 C 14,9 C 4,8 km/h
10.04.2015 21:00 12,2 C 61 % 1021,3 hPa 0,0 l/m 0,0 km/h N 4,8 C 12,2 C 0,4 km/h
10.04.2015 22:00 9,8 C 67 % 1021,0 hPa 0,0 l/m 0,0 km/h N 4,0 C 9,8 C 0,0 km/h
10.04.2015 23:00 8,0 C 73 % 1020,8 hPa 0,0 l/m 0,0 km/h N 3,5 C 8,0 C 0,0 km/h
11.04.2015 00:00 6,8 C 78 % 1020,5 hPa 0,0 l/m 0,1 km/h N 3,3 C 6,8 C 0,8 km/h
11.04.2015 01:00 6,0 C 81 % 1019,9 hPa 0,0 l/m 0,1 km/h N 2,9 C 6,0 C 1,2 km/h
11.04.2015 02:00 5,4 C 82 % 1019,4 hPa 0,0 l/m 0,0 km/h N 2,6 C 5,4 C 0,0 km/h
11.04.2015 03:00 4,9 C 83 % 1019,4 hPa 0,0 l/m 0,0 km/h N 2,3 C 4,9 C 0,0 km/h
11.04.2015 04:00 4,3 C 84 % 1019,4 hPa 0,0 l/m 0,0 km/h N 1,8 C 4,3 C 0,0 km/h
11.04.2015 05:00 3,5 C 85 % 1019,7 hPa 0,0 l/m 0,0 km/h N 1,2 C 3,5 C 0,0 km/h
11.04.2015 06:00 3,2 C 85 % 1020,0 hPa 0,0 l/m 0,0 km/h N 0,9 C 3,2 C 0,0 km/h
11.04.2015 07:00 4,0 C 84 % 1020,8 hPa 0,0 l/m 0,0 km/h N 1,5 C 4,0 C 0,0 km/h
11.04.2015 08:00 7,7 C 82 % 1020,9 hPa 0,0 l/m 1,1 km/h N 4,8 C 7,7 C 5,2 km/h
11.04.2015 09:00 11,6 C 67 % 1021,0 hPa 0,0 l/m 1,1 km/h N 5,7 C 11,6 C 5,6 km/h
11.04.2015 10:00 14,4 C 60 % 1021,3 hPa 0,0 l/m 1,5 km/h N 6,6 C 14,4 C 7,6 km/h
11.04.2015 11:00 17,0 C 54 % 1021,2 hPa 0,0 l/m 1,3 km/h N 7,6 C 17,0 C 8,0 km/h
11.04.2015 12:00 19,3 C 50 % 1020,6 hPa 0,0 l/m 1,5 km/h N 8,6 C 19,3 C 9,6 km/h
11.04.2015 13:00 20,4 C 47 % 1020,1 hPa 0,0 l/m 2,0 km/h N 8,5 C 20,4 C 10,9 km/h
11.04.2015 14:00 20,9 C 42 % 1019,8 hPa 0,0 l/m 6,0 km/h N 7,5 C 20,8 C 18,5 km/h
11.04.2015 15:00 20,9 C 41 % 1019,7 hPa 0,0 l/m 4,8 km/h N 7,2 C 20,9 C 15,7 km/h
11.04.2015 16:00 21,1 C 40 % 1019,4 hPa 0,0 l/m 3,2 km/h N 6,8 C 21,1 C 12,9 km/h
11.04.2015 17:00 21,3 C 39 % 1019,4 hPa 0,0 l/m 3,8 km/h N 6,7 C 21,3 C 14,5 km/h
11.04.2015 18:00 20,1 C 41 % 1020,0 hPa 0,0 l/m 7,9 km/h N 6,5 C 19,5 C 23,7 km/h
11.04.2015 19:00 17,6 C 51 % 1021,1 hPa 0,0 l/m 8,9 km/h N 7,3 C 16,2 C 23,3 km/h
11.04.2015 20:00 15,5 C 60 % 1022,3 hPa 0,0 l/m 2,8 km/h N 7,8 C 15,5 C 10,1 km/h
11.04.2015 21:00 15,0 C 64 % 1023,1 hPa 0,0 l/m 3,8 km/h N 8,1 C 15,0 C 12,5 km/h
11.04.2015 22:00 14,7 C 63 % 1023,3 hPa 0,0 l/m 3,4 km/h N 7,8 C 14,7 C 9,7 km/h
11.04.2015 23:00 13,8 C 65 % 1023,5 hPa 0,0 l/m 2,0 km/h N 7,3 C 13,8 C 8,1 km/h
12.04.2015 00:00 13,1 C 66 % 1023,8 hPa 0,0 l/m 2,1 km/h N 6,7 C 13,1 C 9,2 km/h
12.04.2015 01:00 15,2 C 56 % 1023,8 hPa 0,0 l/m 9,4 km/h N 6,5 C 13,6 C 26,9 km/h
12.04.2015 02:00 15,2 C 57 % 1024,1 hPa 0,0 l/m 12,0 km/h N 6,8 C 12,5 C 29,0 km/h
12.04.2015 03:00 14,9 C 59 % 1024,9 hPa 0,0 l/m 11,1 km/h N 6,9 C 12,5 C 28,5 km/h
12.04.2015 04:00 14,4 C 61 % 1025,8 hPa 0,0 l/m 11,7 km/h N 6,9 C 11,7 C 30,2 km/h
12.04.2015 05:00 13,9 C 63 % 1026,6 hPa 0,0 l/m 9,6 km/h N 7,0 C 12,2 C 22,1 km/h
12.04.2015 06:00 13,7 C 64 % 1027,2 hPa 0,0 l/m 8,8 km/h N 6,9 C 12,3 C 22,9 km/h
12.04.2015 07:00 13,9 C 64 % 1027,9 hPa 0,0 l/m 9,0 km/h N 7,2 C 12,4 C 20,9 km/h
12.04.2015 08:00 14,6 C 63 % 1028,7 hPa 0,0 l/m 8,7 km/h N 7,5 C 13,3 C 21,3 km/h
12.04.2015 09:00 15,6 C 60 % 1029,2 hPa 0,0 l/m 12,1 km/h N 7,8 C 13,0 C 27,8 km/h
12.04.2015 10:00 15,8 C 59 % 1029,7 hPa 0,0 l/m 10,2 km/h N 7,8 C 13,9 C 24,5 km/h
12.04.2015 11:00 15,6 C 60 % 1030,0 hPa 0,0 l/m 6,7 km/h N 7,8 C 15,3 C 16,5 km/h
12.04.2015 12:00 16,4 C 58 % 1029,6 hPa 0,0 l/m 5,4 km/h N 8,0 C 16,4 C 18,9 km/h
12.04.2015 13:00 17,0 C 54 % 1029,2 hPa 0,0 l/m 6,5 km/h N 7,7 C 16,8 C 16,1 km/h
12.04.2015 14:00 18,0 C 51 % 1028,6 hPa 0,0 l/m 8,1 km/h N 7,6 C 17,3 C 20,1 km/h
12.04.2015 15:00 18,3 C 48 % 1027,9 hPa 0,0 l/m 6,6 km/h N 7,0 C 18,1 C 18,1 km/h
12.04.2015 16:00 18,6 C 47 % 1027,4 hPa 0,0 l/m 7,1 km/h N 7,1 C 18,3 C 18,1 km/h
12.04.2015 17:00 18,0 C 51 % 1027,1 hPa 0,0 l/m 4,4 km/h N 7,5 C 18,0 C 12,1 km/h
12.04.2015 18:00 18,0 C 51 % 1026,8 hPa 0,0 l/m 3,6 km/h N 7,6 C 18,0 C 10,9 km/h
12.04.2015 19:00 16,9 C 52 % 1026,5 hPa 0,0 l/m 0,8 km/h N 7,0 C 16,9 C 4,0 km/h
12.04.2015 20:00 14,3 C 59 % 1027,0 hPa 0,0 l/m 0,0 km/h N 6,5 C 14,3 C 0,4 km/h
12.04.2015 21:00 11,9 C 67 % 1027,1 hPa 0,0 l/m 0,0 km/h N 5,8 C 11,9 C 0,8 km/h
12.04.2015 22:00 10,6 C 72 % 1027,1 hPa 0,0 l/m 0,2 km/h N 5,8 C 10,6 C 2,8 km/h
12.04.2015 23:00 10,3 C 73 % 1027,0 hPa 0,0 l/m 0,1 km/h N 5,6 C 10,3 C 1,2 km/h
Min-Datum _ 10.04.15 11.04.15 11.04.15 - 09.04.15 - 06.04.15 07.04.15 09.04.15
_ Min-Zeit 06:15 16:45 16:45 - 21:15 - 15:30 06:34 21:30
Minimum _ 1,2 C 38 % 1019,2 hPa - 0,0 km/h - -4,8 C -2,4 C 0,0 km/h
Max-Datum _ 11.04.15 10.04.15 07.04.15 06.04.15 07.04.15 - 11.04.15 11.04.15 08.04.15
_ Max-Zeit 17:45 05:30 10:45 00:00 14:45 - 13:00 17:30 06:45
Maximum _ 21,6 C 85 % 1032,7 hPa 0,0 l/m 19,3 km/h
N
- 9,1 C 21,5 C 41,8 km/h
N
Durchschnitt _ 9,6 C 62 % 1026,0 hPa #0,0 l/m 6,6 km/h N 2,5 C 8,0 C 16,6 km/h